Time;durP1;ratioP1;P1;durP2;ratioP2;P2;SDS_P1;SDS_P2;PMS_P1;PMS_P2;Temp;Humidity;BMP_temperature;BMP_pressure;BME280_temperature;BME280_humidity;BME280_pressure;Samples;Min_cycle;Max_cycle;Signal;HPM_P1;HPM_P2
2022/07/24 00:00:13;;;;;;;33.33;25.07;;;17.60;99.90;;;;;;5053455;28;20195;-58
2022/07/24 00:02:42;;;;;;;32.73;25.37;;;17.60;99.90;;;;;;5072095;28;20554;-57
2022/07/24 00:05:11;;;;;;;31.37;24.20;;;17.50;99.90;;;;;;5055409;28;20227;-58
2022/07/24 00:07:39;;;;;;;33.13;24.47;;;17.50;99.90;;;;;;5061464;28;20650;-58
2022/07/24 00:10:09;;;;;;;34.80;25.13;;;17.50;99.90;;;;;;5072304;28;20575;-57
2022/07/24 00:12:38;;;;;;;31.70;23.93;;;17.50;99.90;;;;;;5072030;28;20752;-58
2022/07/24 00:15:07;;;;;;;34.67;24.80;;;17.40;99.90;;;;;;5071831;28;20216;-57
2022/07/24 00:17:37;;;;;;;38.67;25.33;;;17.40;99.90;;;;;;5070978;28;20203;-58
2022/07/24 00:20:09;;;;;;;36.33;26.00;;;17.40;99.90;;;;;;5069944;28;20194;-57
2022/07/24 00:22:38;;;;;;;37.97;25.93;;;17.40;99.90;;;;;;5068415;28;20218;-58
2022/07/24 00:25:07;;;;;;;36.33;25.47;;;17.40;99.90;;;;;;5071954;28;20200;-57
2022/07/24 00:27:35;;;;;;;36.27;25.83;;;17.40;99.90;;;;;;5071686;28;20225;-58
2022/07/24 00:30:04;;;;;;;37.33;26.17;;;17.30;99.90;;;;;;5070459;28;20199;-58
2022/07/24 00:32:33;;;;;;;41.10;27.20;;;17.30;99.90;;;;;;5065995;28;20227;-58
2022/07/24 00:35:03;;;;;;;36.63;25.37;;;17.20;99.90;;;;;;5071808;28;20275;-57
2022/07/24 00:37:32;;;;;;;37.07;25.73;;;17.20;99.90;;;;;;5071409;28;20210;-57
2022/07/24 00:40:00;;;;;;;39.43;27.80;;;17.10;99.90;;;;;;5064213;28;20325;-58
2022/07/24 00:42:29;;;;;;;37.87;26.63;;;17.10;99.90;;;;;;5071651;28;20200;-58
2022/07/24 00:44:57;;;;;;;36.03;26.70;;;17.00;99.90;;;;;;5071946;28;20203;-58
2022/07/24 00:47:27;;;;;;;39.33;26.17;;;17.00;99.90;;;;;;5060027;28;20229;-58
2022/07/24 00:49:57;;;;;;;36.83;27.33;;;17.00;99.90;;;;;;5065765;28;20235;-58
2022/07/24 00:52:28;;;;;;;40.83;27.83;;;17.00;99.90;;;;;;5055533;28;20228;-57
2022/07/24 00:54:56;;;;;;;39.27;26.80;;;17.00;99.90;;;;;;5074654;28;20730;-57
2022/07/24 00:57:25;;;;;;;38.77;27.27;;;17.00;99.90;;;;;;5073844;28;20205;-57
2022/07/24 00:59:53;;;;;;;40.57;28.87;;;17.00;99.90;;;;;;5067586;28;20586;-57
2022/07/24 01:02:42;;;;;;;43.07;28.40;;;16.90;99.90;;;;;;5074682;28;20559;-57
2022/07/24 01:05:10;;;;;;;40.73;27.53;;;16.90;99.90;;;;;;5058625;28;20197;-57
2022/07/24 01:07:41;;;;;;;37.63;26.43;;;16.90;99.90;;;;;;5074714;28;20626;-57
2022/07/24 01:10:10;;;;;;;42.13;27.97;;;16.90;99.90;;;;;;5070920;28;20275;-57
2022/07/24 01:12:40;;;;;;;39.03;24.67;;;16.90;99.90;;;;;;5068356;28;20689;-57
2022/07/24 01:15:10;;;;;;;35.60;25.93;;;16.90;99.90;;;;;;5065435;28;20302;-57
2022/07/24 01:17:41;;;;;;;36.77;26.07;;;16.90;99.90;;;;;;5073809;28;20187;-57
2022/07/24 01:20:11;;;;;;;37.83;24.03;;;16.90;99.90;;;;;;5058233;28;20218;-57
2022/07/24 01:22:41;;;;;;;30.73;20.90;;;16.80;99.90;;;;;;5074484;28;20216;-57
2022/07/24 01:25:10;;;;;;;34.27;23.37;;;16.80;99.90;;;;;;5075258;28;20207;-58
2022/07/24 01:27:39;;;;;;;33.00;21.87;;;16.80;99.90;;;;;;5074231;28;20693;-57
2022/07/24 01:30:09;;;;;;;33.47;21.97;;;16.80;99.90;;;;;;5074744;28;20205;-57
2022/07/24 01:32:38;;;;;;;33.80;22.33;;;16.70;99.90;;;;;;5070598;28;20294;-58
2022/07/24 01:35:07;;;;;;;29.27;21.37;;;16.70;99.90;;;;;;5071594;28;20204;-57
2022/07/24 01:37:36;;;;;;;32.00;21.30;;;16.70;99.90;;;;;;5067326;28;20194;-58
2022/07/24 01:40:06;;;;;;;32.97;21.60;;;16.60;99.90;;;;;;5062206;28;20204;-57
2022/07/24 01:42:35;;;;;;;37.63;21.03;;;16.60;99.90;;;;;;5064780;28;20249;-58
2022/07/24 01:45:04;;;;;;;32.73;20.67;;;16.60;99.90;;;;;;5064044;28;20228;-57
2022/07/24 01:47:33;;;;;;;31.97;19.70;;;16.60;99.90;;;;;;5070763;28;20228;-57
2022/07/24 01:50:01;;;;;;;27.17;19.73;;;16.60;99.90;;;;;;5070205;28;20204;-58
2022/07/24 01:52:29;;;;;;;32.67;19.90;;;16.50;99.90;;;;;;5084064;28;20589;-58
2022/07/24 01:54:58;;;;;;;27.57;19.53;;;16.50;99.90;;;;;;5074873;28;20227;-58
2022/07/24 01:57:28;;;;;;;25.80;18.60;;;16.50;99.90;;;;;;5073781;28;20276;-57
2022/07/24 01:59:58;;;;;;;33.20;18.97;;;16.50;99.90;;;;;;5072599;28;20229;-57
2022/07/24 02:02:27;;;;;;;26.03;19.20;;;16.40;99.90;;;;;;5054492;28;20259;-59
2022/07/24 02:04:55;;;;;;;25.50;19.07;;;16.40;99.90;;;;;;5058213;28;20283;-58
2022/07/24 02:07:24;;;;;;;28.03;19.60;;;16.40;99.90;;;;;;5062539;28;20755;-59
2022/07/24 02:09:52;;;;;;;28.87;19.90;;;16.40;99.90;;;;;;5060012;28;20661;-57
2022/07/24 02:12:22;;;;;;;32.40;19.37;;;16.30;99.90;;;;;;5061937;28;20651;-57
2022/07/24 02:14:52;;;;;;;28.23;19.63;;;16.30;99.90;;;;;;5070974;28;20205;-57
2022/07/24 02:17:21;;;;;;;27.00;18.87;;;16.30;99.90;;;;;;5058113;28;20189;-57
2022/07/24 02:19:49;;;;;;;25.33;18.13;;;16.20;99.90;;;;;;5059099;28;20193;-58
2022/07/24 02:22:18;;;;;;;30.03;17.70;;;16.20;99.90;;;;;;5068410;28;20192;-58
2022/07/24 02:24:46;;;;;;;24.23;17.87;;;16.10;99.90;;;;;;5059586;28;20200;-57
2022/07/24 02:27:15;;;;;;;30.37;17.80;;;16.10;99.90;;;;;;5073242;28;20253;-58
2022/07/24 02:29:43;;;;;;;24.40;17.30;;;16.10;99.90;;;;;;5067423;28;20288;-58
2022/07/24 02:32:13;;;;;;;25.30;17.23;;;16.00;99.90;;;;;;5056405;28;20280;-58
2022/07/24 02:34:41;;;;;;;28.63;17.80;;;16.00;99.90;;;;;;5073888;28;20217;-57
2022/07/24 02:37:10;;;;;;;27.07;17.83;;;15.90;99.90;;;;;;5089014;28;20196;-58
2022/07/24 02:39:38;;;;;;;23.07;17.37;;;15.90;99.90;;;;;;5085626;28;20200;-58
2022/07/24 02:42:08;;;;;;;29.13;17.07;;;15.90;99.90;;;;;;5070102;28;20202;-57
2022/07/24 02:44:36;;;;;;;26.97;17.23;;;15.80;99.90;;;;;;5069506;28;20189;-57
2022/07/24 02:47:05;;;;;;;22.73;16.77;;;15.80;99.90;;;;;;5059735;28;20247;-58
2022/07/24 02:49:35;;;;;;;28.00;17.37;;;15.80;99.90;;;;;;5059970;28;20196;-57
2022/07/24 02:52:04;;;;;;;27.90;17.30;;;15.80;99.90;;;;;;5073643;28;20201;-57
2022/07/24 02:54:33;;;;;;;26.00;18.20;;;15.70;99.90;;;;;;5072413;28;20228;-57
2022/07/24 02:57:01;;;;;;;25.67;16.90;;;15.70;99.90;;;;;;5071496;28;20533;-58
2022/07/24 02:59:30;;;;;;;26.13;17.07;;;15.70;99.90;;;;;;5063192;28;20709;-57
2022/07/24 03:01:58;;;;;;;23.13;16.97;;;15.70;99.90;;;;;;5072177;28;20669;-57
2022/07/24 03:04:27;;;;;;;25.90;17.10;;;15.60;99.90;;;;;;5073656;28;20218;-57
2022/07/24 03:06:56;;;;;;;24.00;17.23;;;15.60;99.90;;;;;;5070732;28;20746;-57
2022/07/24 03:09:25;;;;;;;24.00;16.23;;;15.60;99.90;;;;;;5074265;28;20189;-57
2022/07/24 03:11:54;;;;;;;23.33;16.27;;;15.60;99.90;;;;;;5073105;28;20224;-57
2022/07/24 03:14:22;;;;;;;20.73;15.07;;;15.50;99.90;;;;;;5073222;28;20221;-57
2022/07/24 03:16:53;;;;;;;24.53;16.10;;;15.50;99.90;;;;;;5073524;28;20278;-57
2022/07/24 03:19:22;;;;;;;24.37;16.30;;;15.50;99.90;;;;;;5073265;28;20196;-57
2022/07/24 03:21:50;;;;;;;18.60;14.37;;;15.50;99.90;;;;;;5071971;28;20322;-57
2022/07/24 03:24:20;;;;;;;22.40;15.10;;;15.40;99.90;;;;;;5073340;28;20545;-58
2022/07/24 03:26:48;;;;;;;26.57;15.57;;;15.40;99.90;;;;;;5067597;28;20287;-58
2022/07/24 03:29:17;;;;;;;21.47;15.30;;;15.40;99.90;;;;;;5074326;28;20253;-57
2022/07/24 03:31:46;;;;;;;25.40;16.13;;;15.30;99.90;;;;;;5073395;28;20231;-57
2022/07/24 03:34:15;;;;;;;21.60;14.73;;;15.30;99.90;;;;;;5070649;28;20220;-58
2022/07/24 03:36:43;;;;;;;20.93;15.07;;;15.30;99.90;;;;;;5079637;28;20279;-58
2022/07/24 03:39:12;;;;;;;22.27;15.20;;;15.30;99.90;;;;;;5060686;28;20200;-58
2022/07/24 03:41:42;;;;;;;22.57;15.43;;;15.30;99.90;;;;;;5071270;28;20192;-58
2022/07/24 03:44:10;;;;;;;21.17;15.60;;;15.30;99.90;;;;;;5051695;28;20644;-57
2022/07/24 03:46:39;;;;;;;22.80;15.20;;;15.30;99.90;;;;;;5062737;28;20220;-58
2022/07/24 03:49:07;;;;;;;24.27;16.57;;;15.30;99.90;;;;;;5067147;28;20194;-58
2022/07/24 03:51:37;;;;;;;19.00;14.23;;;15.30;99.90;;;;;;5064634;28;20192;-58
2022/07/24 03:54:08;;;;;;;20.03;15.63;;;15.30;99.90;;;;;;5068999;28;20204;-58
2022/07/24 03:56:36;;;;;;;19.50;14.57;;;15.30;99.90;;;;;;5070034;28;20234;-58
2022/07/24 03:59:06;;;;;;;23.83;15.87;;;15.30;99.90;;;;;;5070340;28;20635;-57
2022/07/24 04:01:35;;;;;;;24.87;17.27;;;15.20;99.90;;;;;;5072258;28;20200;-58
2022/07/24 04:04:41;;;;;;;23.33;15.47;;;15.20;99.90;;;;;;5073156;28;20682;-59
2022/07/24 04:07:10;;;;;;;23.97;15.90;;;15.10;99.90;;;;;;5077141;28;20236;-58
2022/07/24 04:09:38;;;;;;;26.23;16.43;;;15.10;99.90;;;;;;5070551;28;20288;-58
2022/07/24 04:12:08;;;;;;;26.43;19.23;;;15.00;99.90;;;;;;5058656;28;20196;-57
2022/07/24 04:14:38;;;;;;;29.30;19.33;;;15.00;99.90;;;;;;5038404;28;20226;-58
2022/07/24 04:17:07;;;;;;;30.17;20.20;;;15.00;99.90;;;;;;5055796;28;20230;-58
2022/07/24 04:19:35;;;;;;;30.40;20.20;;;15.10;99.90;;;;;;5067606;28;20657;-58
2022/07/24 04:22:04;;;;;;;29.87;20.97;;;15.10;99.90;;;;;;5075487;28;20206;-58
2022/07/24 04:24:33;;;;;;;30.87;19.80;;;15.10;99.90;;;;;;5076256;28;20195;-57
2022/07/24 04:27:01;;;;;;;32.70;21.67;;;15.10;99.90;;;;;;5068028;28;20283;-58
2022/07/24 04:29:30;;;;;;;31.70;21.53;;;15.10;99.90;;;;;;5075646;28;20203;-57
2022/07/24 04:32:00;;;;;;;31.17;21.90;;;15.20;99.90;;;;;;5076407;28;20211;-57
2022/07/24 04:34:28;;;;;;;31.00;22.00;;;15.20;99.90;;;;;;5073283;28;20299;-57
2022/07/24 04:36:58;;;;;;;30.30;21.37;;;15.20;99.90;;;;;;5067133;28;20296;-57
2022/07/24 04:39:26;;;;;;;31.20;21.30;;;15.20;99.90;;;;;;5064972;28;20200;-57
2022/07/24 04:41:54;;;;;;;31.17;20.73;;;15.30;99.90;;;;;;5069923;28;20676;-57
2022/07/24 04:44:22;;;;;;;33.37;21.23;;;15.30;99.90;;;;;;5061940;28;20272;-57
2022/07/24 04:46:51;;;;;;;31.30;20.60;;;15.30;99.90;;;;;;5067851;28;20215;-57
2022/07/24 04:49:20;;;;;;;29.43;20.67;;;15.30;99.90;;;;;;5069592;28;20285;-58
2022/07/24 04:51:49;;;;;;;30.63;19.37;;;15.40;99.90;;;;;;5057983;28;20200;-58
2022/07/24 04:54:17;;;;;;;29.30;19.30;;;15.40;99.90;;;;;;5073039;28;20216;-58
2022/07/24 04:56:46;;;;;;;27.83;18.40;;;15.50;99.90;;;;;;5084380;28;20195;-58
2022/07/24 04:59:16;;;;;;;29.27;18.63;;;15.60;99.90;;;;;;5073833;28;20204;-57
2022/07/24 05:01:44;;;;;;;24.07;17.10;;;15.70;99.90;;;;;;5055224;28;20344;-58
2022/07/24 05:04:16;;;;;;;25.37;16.77;;;15.90;99.90;;;;;;5078661;28;20657;-58
2022/07/24 05:06:46;;;;;;;25.27;15.97;;;16.10;99.90;;;;;;5076336;28;20632;-58
2022/07/24 05:09:15;;;;;;;19.93;14.37;;;16.30;99.90;;;;;;5094707;28;20188;-58
2022/07/24 05:11:46;;;;;;;20.47;13.83;;;16.50;99.90;;;;;;5069977;28;20666;-58
2022/07/24 05:14:14;;;;;;;19.17;14.00;;;16.60;99.90;;;;;;5070605;28;20252;-57
2022/07/24 05:16:42;;;;;;;15.90;12.17;;;16.80;99.90;;;;;;5091756;28;20281;-58
2022/07/24 05:19:11;;;;;;;25.50;13.93;;;16.90;99.90;;;;;;5075977;28;20253;-57
2022/07/24 05:21:40;;;;;;;16.80;12.13;;;16.90;99.90;;;;;;5075650;28;20208;-57
2022/07/24 05:24:10;;;;;;;17.10;13.90;;;17.00;99.90;;;;;;5067095;28;20194;-58
2022/07/24 05:26:38;;;;;;;21.77;13.97;;;17.00;99.90;;;;;;5073195;28;20281;-57
2022/07/24 05:29:07;;;;;;;16.83;13.40;;;17.10;99.90;;;;;;5088172;28;20237;-57
2022/07/24 05:31:36;;;;;;;20.87;13.30;;;17.30;99.90;;;;;;5089538;28;20188;-57
2022/07/24 05:34:09;;;;;;;19.03;13.47;;;17.30;99.90;;;;;;5073659;28;20188;-57
2022/07/24 05:36:37;;;;;;;15.83;12.07;;;17.40;99.90;;;;;;5072518;28;20220;-57
2022/07/24 05:39:06;;;;;;;14.33;12.10;;;17.60;99.90;;;;;;5060680;28;20209;-58
2022/07/24 05:41:37;;;;;;;17.03;11.53;;;17.80;99.90;;;;;;5069285;28;20195;-58
2022/07/24 05:44:05;;;;;;;14.47;11.30;;;18.00;99.90;;;;;;5073556;28;20686;-58
2022/07/24 05:46:34;;;;;;;15.70;11.43;;;18.20;99.90;;;;;;5069713;28;20192;-58
2022/07/24 05:49:02;;;;;;;19.43;12.23;;;18.50;99.90;;;;;;5073389;28;20195;-58
2022/07/24 05:51:31;;;;;;;15.80;11.03;;;18.70;99.90;;;;;;5079814;28;20196;-58
2022/07/24 05:54:00;;;;;;;16.13;11.27;;;18.80;99.90;;;;;;5067175;28;20282;-58
2022/07/24 05:56:28;;;;;;;15.50;10.53;;;19.00;99.90;;;;;;5066913;28;20295;-58
2022/07/24 05:58:58;;;;;;;15.77;10.77;;;19.10;99.90;;;;;;5076741;28;20642;-58
2022/07/24 06:01:26;;;;;;;14.43;10.13;;;19.30;99.90;;;;;;5069867;28;20207;-57
2022/07/24 06:03:54;;;;;;;18.33;9.93;;;19.40;99.90;;;;;;5069619;28;20261;-58
2022/07/24 06:06:23;;;;;;;13.20;9.83;;;19.60;99.90;;;;;;5071497;28;20203;-58
2022/07/24 06:08:51;;;;;;;9.83;8.67;;;19.80;99.90;;;;;;5075013;28;20541;-57
2022/07/24 06:11:20;;;;;;;13.93;9.70;;;19.90;99.90;;;;;;5073453;28;20223;-57
2022/07/24 06:13:49;;;;;;;11.73;8.90;;;20.10;99.90;;;;;;5081043;28;20279;-59
2022/07/24 06:16:18;;;;;;;16.27;9.67;;;20.20;99.90;;;;;;5073410;28;20251;-58
2022/07/24 06:18:47;;;;;;;10.77;9.20;;;20.30;99.90;;;;;;5070392;28;20226;-58
2022/07/24 06:21:15;;;;;;;12.20;8.93;;;20.50;99.90;;;;;;5068954;28;20282;-58
2022/07/24 06:23:43;;;;;;;11.83;7.60;;;20.70;99.90;;;;;;5067187;28;20227;-58
2022/07/24 06:26:11;;;;;;;8.70;7.43;;;21.00;99.90;;;;;;5059480;28;20197;-58
2022/07/24 06:28:40;;;;;;;12.47;8.37;;;21.10;99.90;;;;;;5070159;28;20719;-58
2022/07/24 06:31:08;;;;;;;10.77;7.90;;;21.30;99.90;;;;;;5073247;28;20281;-58
2022/07/24 06:33:45;;;;;;;11.30;6.60;;;21.50;99.90;;;;;;5063362;28;20517;-58
2022/07/24 06:36:13;;;;;;;15.07;6.90;;;21.60;99.90;;;;;;5059036;28;20300;-57
2022/07/24 06:38:41;;;;;;;8.60;5.87;;;21.80;99.90;;;;;;5070020;28;20194;-58
2022/07/24 06:41:10;;;;;;;6.67;6.10;;;22.00;99.90;;;;;;5070007;28;20279;-58
2022/07/24 06:43:38;;;;;;;7.50;6.03;;;22.10;99.90;;;;;;5067943;28;20275;-57
2022/07/24 06:46:06;;;;;;;10.00;5.80;;;22.10;99.90;;;;;;5069799;28;20184;-57
2022/07/24 06:48:35;;;;;;;5.60;5.10;;;22.30;99.90;;;;;;5065351;28;20281;-58
2022/07/24 06:51:05;;;;;;;5.83;5.20;;;22.50;99.90;;;;;;5073375;28;20194;-57
2022/07/24 06:53:34;;;;;;;5.47;4.97;;;22.90;99.90;;;;;;5074633;28;20317;-57
2022/07/24 06:56:02;;;;;;;6.67;5.13;;;23.10;99.90;;;;;;5066879;28;20230;-58
2022/07/24 06:58:30;;;;;;;6.30;4.90;;;23.30;99.90;;;;;;5068770;28;20278;-58
2022/07/24 07:00:58;;;;;;;5.27;4.80;;;23.60;99.90;;;;;;5064147;28;20639;-57
2022/07/24 07:03:27;;;;;;;6.13;4.60;;;23.80;99.90;;;;;;5071451;28;20212;-57
2022/07/24 07:05:55;;;;;;;6.17;4.13;;;23.90;99.90;;;;;;5072705;28;20207;-58
2022/07/24 07:08:25;;;;;;;5.10;4.20;;;24.00;99.90;;;;;;5070093;28;20627;-58
2022/07/24 07:10:53;;;;;;;4.30;3.90;;;24.00;99.90;;;;;;5057319;28;20280;-58
2022/07/24 07:13:22;;;;;;;4.07;3.60;;;24.00;99.90;;;;;;5060020;28;20283;-58
2022/07/24 07:15:50;;;;;;;4.77;3.60;;;24.10;99.90;;;;;;5058929;28;20212;-58
2022/07/24 07:18:18;;;;;;;4.40;4.00;;;24.10;99.90;;;;;;5094514;28;20192;-58
2022/07/24 07:20:47;;;;;;;4.07;3.73;;;24.40;99.90;;;;;;5060286;28;21112;-58
2022/07/24 07:23:16;;;;;;;4.40;4.00;;;24.60;99.90;;;;;;5061593;28;20236;-58
2022/07/24 07:25:46;;;;;;;3.95;3.65;;;24.80;99.90;;;;;;5096742;28;20197;-58
2022/07/24 07:28:14;;;;;;;3.22;3.13;;;25.00;99.90;;;;;;5061706;28;20204;-59
2022/07/24 07:30:42;;;;;;;5.45;3.10;;;25.00;99.90;;;;;;5057449;28;20208;-58
2022/07/24 07:33:11;;;;;;;3.45;3.17;;;25.40;99.90;;;;;;5059014;28;20263;-58
2022/07/24 07:35:40;;;;;;;3.65;2.88;;;25.40;99.90;;;;;;5101398;28;20218;-58
2022/07/24 07:38:11;;;;;;;3.63;3.05;;;25.50;99.90;;;;;;5072220;28;20228;-58
2022/07/24 07:40:39;;;;;;;4.95;3.15;;;25.40;99.90;;;;;;5071266;28;20208;-59
2022/07/24 07:43:09;;;;;;;3.70;3.20;;;25.50;99.90;;;;;;5070619;28;20222;-59
2022/07/24 07:45:37;;;;;;;3.75;2.67;;;25.80;99.90;;;;;;5067037;28;20276;-58
2022/07/24 07:48:06;;;;;;;2.97;2.78;;;25.90;99.90;;;;;;5063834;28;20195;-58
2022/07/24 07:50:34;;;;;;;2.97;2.88;;;26.00;99.90;;;;;;5061461;28;20554;-58
2022/07/24 07:53:02;;;;;;;4.10;3.20;;;26.30;99.90;;;;;;5062150;28;20195;-58
2022/07/24 07:55:31;;;;;;;3.38;3.17;;;26.60;99.90;;;;;;5063822;28;21817;-58
2022/07/24 07:58:01;;;;;;;2.72;2.53;;;26.90;99.90;;;;;;5050155;28;20276;-58
2022/07/24 08:00:35;;;;;;;3.03;2.72;;;26.80;99.90;;;;;;5065916;28;20607;-59
2022/07/24 08:03:03;;;;;;;3.10;2.90;;;27.40;99.90;;;;;;5079671;28;20193;-58
2022/07/24 08:05:31;;;;;;;2.75;2.63;;;27.60;99.90;;;;;;5061739;28;20271;-58
2022/07/24 08:08:00;;;;;;;2.88;2.53;;;27.80;99.90;;;;;;5072507;28;20231;-59
2022/07/24 08:10:29;;;;;;;2.80;2.60;;;28.30;99.90;;;;;;5071681;28;20207;-59
2022/07/24 08:12:57;;;;;;;3.60;2.45;;;28.10;99.90;;;;;;5067859;28;20204;-58
2022/07/24 08:15:26;;;;;;;2.60;2.42;;;28.20;99.90;;;;;;5074263;28;20220;-59
2022/07/24 08:17:57;;;;;;;2.80;2.60;;;28.20;99.90;;;;;;5062838;28;20303;-59
2022/07/24 08:20:27;;;;;;;2.97;2.70;;;28.40;99.90;;;;;;5064380;28;20633;-58
2022/07/24 08:22:55;;;;;;;3.88;2.40;;;28.90;99.90;;;;;;5058642;28;20197;-58
2022/07/24 08:25:26;;;;;;;2.90;2.70;;;29.10;99.90;;;;;;5072658;28;20204;-58
2022/07/24 08:27:54;;;;;;;3.17;2.60;;;29.30;99.90;;;;;;5078723;28;20200;-58
2022/07/24 08:30:26;;;;;;;2.85;2.45;;;29.60;99.90;;;;;;5060986;28;20197;-58
2022/07/24 08:32:56;;;;;;;2.58;2.40;;;29.60;99.90;;;;;;5070276;28;20259;-58
2022/07/24 08:35:44;;;;;;;3.05;2.50;;;30.10;99.90;;;;;;5064989;28;20747;-58
2022/07/24 08:38:13;;;;;;;2.72;2.42;;;30.10;99.90;;;;;;5058486;28;20201;-58
2022/07/24 08:40:43;;;;;;;2.45;2.22;;;29.90;99.90;;;;;;5063573;28;20276;-59
2022/07/24 08:43:11;;;;;;;2.13;2.03;;;30.30;99.90;;;;;;5055966;28;20199;-58
2022/07/24 08:45:41;;;;;;;4.50;2.28;;;30.50;99.90;;;;;;5056550;28;20674;-58
2022/07/24 08:48:12;;;;;;;6.10;2.30;;;30.60;99.90;;;;;;5063793;28;20191;-59
2022/07/24 08:50:43;;;;;;;2.60;2.40;;;30.80;99.90;;;;;;5064832;28;20286;-58
2022/07/24 08:53:11;;;;;;;2.22;2.03;;;31.00;99.90;;;;;;5060946;28;20231;-58
2022/07/24 08:55:40;;;;;;;2.25;2.15;;;31.30;99.90;;;;;;5065726;28;20196;-58
2022/07/24 08:58:08;;;;;;;2.47;2.30;;;31.40;99.90;;;;;;5069183;28;20305;-58
2022/07/24 09:00:36;;;;;;;2.38;2.10;;;31.60;99.90;;;;;;5044468;28;20207;-58
2022/07/24 09:03:05;;;;;;;2.17;2.05;;;31.90;99.90;;;;;;5070155;28;20562;-59
2022/07/24 09:05:52;;;;;;;4.10;2.30;;;32.30;99.90;;;;;;5060978;28;20203;-58
2022/07/24 09:08:20;;;;;;;3.72;2.17;;;32.10;99.90;;;;;;5068221;28;20232;-59
2022/07/24 09:10:58;;;;;;;2.20;2.10;;;32.10;99.90;;;;;;5069636;28;20196;-59
2022/07/24 09:13:29;;;;;;;4.20;2.60;;;32.40;99.90;;;;;;5071194;28;20199;-59
2022/07/24 09:15:58;;;;;;;2.10;2.00;;;32.40;99.90;;;;;;5073252;28;20218;-58
2022/07/24 09:18:31;;;;;;;1.88;1.85;;;32.20;99.90;;;;;;5068922;28;20281;-59
2022/07/24 09:21:14;;;;;;;2.28;2.00;;;32.30;99.90;;;;;;5067111;28;20596;-59
2022/07/24 09:23:42;;;;;;;2.20;2.00;;;33.10;99.90;;;;;;5061420;28;20204;-59
2022/07/24 09:26:11;;;;;;;2.17;1.98;;;33.20;99.90;;;;;;5101173;28;20215;-58
2022/07/24 09:28:51;;;;;;;1.85;1.75;;;33.40;99.90;;;;;;5075293;28;20635;-59
2022/07/24 09:31:21;;;;;;;2.03;1.92;;;33.20;99.90;;;;;;5076506;28;20213;-58
2022/07/24 09:33:50;;;;;;;5.35;1.92;;;33.00;99.90;;;;;;5076573;28;20219;-59
2022/07/24 09:36:20;;;;;;;2.78;1.98;;;32.90;99.70;;;;;;5074182;28;20192;-59
2022/07/24 09:38:50;;;;;;;2.03;1.92;;;33.10;99.90;;;;;;5063066;28;20287;-59
2022/07/24 09:41:22;;;;;;;1.92;1.80;;;33.40;99.90;;;;;;5063316;28;20193;-58
2022/07/24 09:44:02;;;;;;;1.77;1.67;;;33.00;98.90;;;;;;5063518;28;20626;-58
2022/07/24 09:46:48;;;;;;;2.00;1.83;;;32.90;98.40;;;;;;5068487;28;20188;-58
2022/07/24 09:49:21;;;;;;;2.17;1.83;;;32.90;99.00;;;;;;5062391;28;20928;-58
2022/07/24 09:52:17;;;;;;;2.55;1.67;;;32.70;98.70;;;;;;5067748;28;20205;-58
2022/07/24 09:54:47;;;;;;;2.10;2.00;;;32.90;99.90;;;;;;5071350;28;20271;-58
2022/07/24 09:57:18;;;;;;;1.83;1.73;;;33.40;98.90;;;;;;5066038;28;20738;-59
2022/07/24 09:59:48;;;;;;;1.90;1.80;;;33.80;99.40;;;;;;5065564;28;20203;-58
2022/07/24 10:02:27;;;;;;;1.88;1.77;;;34.00;98.00;;;;;;5081960;28;20216;-59
2022/07/24 10:05:04;;;;;;;1.88;1.77;;;33.80;97.20;;;;;;5053637;28;20631;-58
2022/07/24 10:07:35;;;;;;;2.03;1.88;;;33.70;98.10;;;;;;5067390;28;20277;-58
2022/07/24 10:10:04;;;;;;;2.78;1.90;;;33.80;97.40;;;;;;5068422;28;20192;-58
2022/07/24 10:12:37;;;;;;;1.70;1.60;;;33.90;97.70;;;;;;5067476;28;20224;-58
2022/07/24 10:15:08;;;;;;;5.60;1.70;;;34.00;97.70;;;;;;5066948;28;20294;-58
2022/07/24 10:18:15;;;;;;;2.72;2.00;;;34.10;96.90;;;;;;5070883;28;20710;-59
2022/07/24 10:20:46;;;;;;;2.00;1.90;;;34.30;97.30;;;;;;5063915;28;20228;-58
2022/07/24 10:23:39;;;;;;;2.08;1.75;;;34.30;96.70;;;;;;5069750;28;20244;-58
2022/07/24 10:26:08;;;;;;;2.05;1.90;;;33.90;97.50;;;;;;5066965;28;20283;-59
2022/07/24 10:28:42;;;;;;;2.60;2.20;;;34.10;95.70;;;;;;5060348;28;20925;-59
2022/07/24 10:31:14;;;;;;;2.55;1.88;;;34.10;96.00;;;;;;5069653;28;20217;-58
2022/07/24 10:33:47;;;;;;;2.72;2.30;;;34.10;97.30;;;;;;5097805;27;20262;-58
2022/07/24 10:36:20;;;;;;;3.22;1.98;;;34.30;95.50;;;;;;5070133;28;20193;-58
2022/07/24 10:38:57;;;;;;;2.13;2.00;;;34.10;95.80;;;;;;5061848;28;20255;-58
2022/07/24 10:41:27;;;;;;;2.42;2.17;;;34.00;96.40;;;;;;5066977;28;20276;-58
2022/07/24 10:44:19;;;;;;;2.55;2.25;;;33.90;94.80;;;;;;5069036;28;20226;-58
2022/07/24 10:47:02;;;;;;;2.22;1.98;;;33.90;95.60;;;;;;5072642;28;20211;-58
2022/07/24 10:49:41;;;;;;;2.10;2.00;;;34.20;95.80;;;;;;5069956;28;20287;-58
2022/07/24 10:52:11;;;;;;;2.10;1.95;;;34.00;94.80;;;;;;5060553;28;20200;-59
2022/07/24 10:54:41;;;;;;;2.20;2.10;;;33.90;96.30;;;;;;5069953;28;20200;-59
2022/07/24 10:57:09;;;;;;;2.10;2.10;;;34.20;95.50;;;;;;5064561;28;20279;-58
2022/07/24 10:59:41;;;;;;;2.75;1.80;;;33.90;96.10;;;;;;5064308;28;20287;-58
2022/07/24 11:02:27;;;;;;;1.90;1.80;;;34.00;95.30;;;;;;5045792;28;20216;-58
2022/07/24 11:05:31;;;;;;;2.00;1.90;;;34.00;95.50;;;;;;5065665;28;20196;-58
2022/07/24 11:08:33;;;;;;;2.17;2.17;;;34.10;95.00;;;;;;5061431;28;20251;-59
2022/07/24 11:11:14;;;;;;;2.20;2.10;;;34.40;97.00;;;;;;5002577;28;20277;-59
2022/07/24 11:13:48;;;;;;;1.88;1.83;;;34.40;94.70;;;;;;5060703;28;20200;-58
2022/07/24 11:16:24;;;;;;;2.38;2.28;;;34.40;94.80;;;;;;5059927;28;20238;-58
2022/07/24 11:19:28;;;;;;;2.28;2.15;;;34.60;96.10;;;;;;5092296;28;20239;-59
2022/07/24 11:22:05;;;;;;;2.00;1.90;;;34.50;95.60;;;;;;5023640;28;20295;-59
2022/07/24 11:24:33;;;;;;;2.10;2.00;;;34.10;95.20;;;;;;5089381;28;20239;-58
2022/07/24 11:27:08;;;;;;;2.10;2.00;;;33.90;95.00;;;;;;5069105;28;20207;-59
2022/07/24 11:29:38;;;;;;;2.10;2.00;;;34.10;95.40;;;;;;5079507;28;20276;-59
2022/07/24 11:32:08;;;;;;;1.90;1.90;;;34.20;96.00;;;;;;5065949;28;20232;-59
2022/07/24 11:34:46;;;;;;;1.88;1.80;;;33.70;95.40;;;;;;5096824;28;20226;-58
2022/07/24 11:37:15;;;;;;;3.30;2.10;;;33.60;95.30;;;;;;5070830;28;20723;-58
2022/07/24 11:39:45;;;;;;;2.53;1.80;;;33.30;95.80;;;;;;5070138;28;20608;-58
2022/07/24 11:42:17;;;;;;;3.45;2.20;;;33.20;96.20;;;;;;5062195;28;20214;-58
2022/07/24 11:44:47;;;;;;;2.60;2.40;;;33.20;95.20;;;;;;5069312;28;20625;-58
2022/07/24 11:47:17;;;;;;;2.38;2.28;;;33.20;97.00;;;;;;5078874;28;20607;-58
2022/07/24 11:49:48;;;;;;;2.20;2.10;;;33.40;96.80;;;;;;5061142;28;20604;-58
2022/07/24 11:52:19;;;;;;;2.50;2.30;;;33.50;96.60;;;;;;5065820;28;20605;-58
2022/07/24 11:54:49;;;;;;;2.65;2.45;;;33.30;95.80;;;;;;5069308;28;20710;-58
2022/07/24 11:57:21;;;;;;;4.70;2.40;;;33.20;96.80;;;;;;5070908;28;20201;-58
2022/07/24 12:00:13;;;;;;;4.13;2.47;;;33.20;96.20;;;;;;5066548;28;20202;-58
2022/07/24 12:02:44;;;;;;;2.50;2.38;;;33.40;96.80;;;;;;5067892;28;20269;-59
2022/07/24 12:05:13;;;;;;;3.13;2.53;;;33.40;97.60;;;;;;5070388;28;20241;-58
2022/07/24 12:07:41;;;;;;;2.85;2.60;;;33.20;95.90;;;;;;5060045;28;20229;-59
2022/07/24 12:10:10;;;;;;;2.95;2.30;;;32.80;96.30;;;;;;5076738;28;20657;-59
2022/07/24 12:12:42;;;;;;;2.95;2.58;;;32.70;97.60;;;;;;5063716;28;20748;-59
2022/07/24 12:15:13;;;;;;;2.80;2.60;;;32.60;97.30;;;;;;5068443;28;20597;-58
2022/07/24 12:17:57;;;;;;;2.78;2.58;;;32.60;96.30;;;;;;5071660;28;20205;-58
2022/07/24 12:20:28;;;;;;;4.25;3.03;;;32.20;96.50;;;;;;5072164;28;20202;-59
2022/07/24 12:22:58;;;;;;;2.85;2.70;;;32.00;97.90;;;;;;5059497;28;20381;-58
2022/07/24 12:25:28;;;;;;;3.67;2.78;;;32.10;96.70;;;;;;5067830;28;20183;-59
2022/07/24 12:28:05;;;;;;;4.25;2.60;;;32.30;97.90;;;;;;5065769;28;20697;-59
2022/07/24 12:30:35;;;;;;;3.03;2.83;;;32.30;97.60;;;;;;5062271;28;20243;-59
2022/07/24 12:33:06;;;;;;;3.80;3.05;;;32.20;97.60;;;;;;5062615;28;20279;-58
2022/07/24 12:35:51;;;;;;;2.83;2.63;;;32.10;96.70;;;;;;5070923;28;20289;-58
2022/07/24 12:38:25;;;;;;;2.83;2.72;;;32.00;97.60;;;;;;5070667;28;20680;-58
2022/07/24 12:41:02;;;;;;;3.53;3.20;;;31.60;97.90;;;;;;5060903;28;20195;-58
2022/07/24 12:43:32;;;;;;;4.50;3.35;;;31.70;97.60;;;;;;5058980;28;20260;-58
2022/07/24 12:46:08;;;;;;;3.47;3.15;;;31.80;98.60;;;;;;5074899;28;20209;-58
2022/07/24 12:48:37;;;;;;;2.92;2.83;;;32.00;98.50;;;;;;5071085;28;20202;-59
2022/07/24 12:51:09;;;;;;;7.43;3.00;;;32.00;98.20;;;;;;5074631;28;20194;-58
2022/07/24 12:53:40;;;;;;;2.97;2.80;;;32.10;97.60;;;;;;5073662;28;20199;-58
2022/07/24 12:56:13;;;;;;;3.55;3.17;;;32.00;97.50;;;;;;5074629;28;20198;-58